Time;durP1;ratioP1;P1;durP2;ratioP2;P2;SDS_P1;SDS_P2;PMS_P1;PMS_P2;Temp;Humidity;BMP_temperature;BMP_pressure;BME280_temperature;BME280_humidity;BME280_pressure;Samples;Min_cycle;Max_cycle;Signal;HPM_P1;HPM_P2
2021/01/09 00:01:53;;;;;;;13.67;11.37;;;8.10;56.20;;;;;;5051028;28;20207;-39
2021/01/09 00:04:19;;;;;;;13.40;10.43;;;8.10;56.30;;;;;;5053170;28;20200;-39
2021/01/09 00:06:45;;;;;;;15.40;11.03;;;8.10;56.20;;;;;;5048921;28;20199;-40
2021/01/09 00:09:11;;;;;;;16.03;11.40;;;8.10;56.30;;;;;;5050965;28;20658;-39
2021/01/09 00:11:36;;;;;;;15.23;10.40;;;8.10;56.40;;;;;;5063789;28;20476;-39
2021/01/09 00:14:02;;;;;;;14.00;12.13;;;8.10;56.60;;;;;;5052411;28;20671;-39
2021/01/09 00:16:28;;;;;;;15.27;11.37;;;8.00;56.60;;;;;;5052987;28;20238;-39
2021/01/09 00:18:54;;;;;;;15.67;12.53;;;8.00;57.10;;;;;;5052633;28;20840;-39
2021/01/09 00:21:20;;;;;;;14.83;11.47;;;8.00;56.50;;;;;;5052445;28;20212;-39
2021/01/09 00:23:45;;;;;;;16.20;12.07;;;8.00;56.70;;;;;;5052991;28;20219;-40
2021/01/09 00:26:11;;;;;;;14.20;10.80;;;8.00;56.70;;;;;;5053009;28;20515;-39
2021/01/09 00:28:36;;;;;;;17.93;12.37;;;8.10;56.80;;;;;;5052661;28;20195;-39
2021/01/09 00:31:03;;;;;;;15.63;12.27;;;8.10;56.70;;;;;;5050660;28;20193;-40
2021/01/09 00:33:28;;;;;;;13.07;10.23;;;8.10;56.50;;;;;;5052230;28;20212;-39
2021/01/09 00:35:56;;;;;;;14.70;11.03;;;8.10;56.50;;;;;;5053271;28;20462;-39
2021/01/09 00:38:23;;;;;;;15.87;11.70;;;8.10;56.60;;;;;;5053715;28;20293;-39
2021/01/09 00:40:49;;;;;;;14.83;10.83;;;8.10;56.70;;;;;;5051525;28;20459;-39
2021/01/09 00:43:15;;;;;;;15.30;10.70;;;8.10;56.60;;;;;;5052078;28;20457;-39
2021/01/09 00:45:40;;;;;;;16.00;12.33;;;8.10;56.50;;;;;;5056348;28;20427;-40
2021/01/09 00:48:06;;;;;;;14.27;11.40;;;8.20;57.10;;;;;;5052006;28;20540;-39
2021/01/09 00:50:32;;;;;;;17.47;12.47;;;8.20;56.40;;;;;;5051320;28;20203;-39
2021/01/09 00:52:57;;;;;;;14.30;10.23;;;8.20;56.30;;;;;;5051724;28;20216;-39
2021/01/09 00:55:23;;;;;;;14.07;10.97;;;8.20;56.20;;;;;;5052438;28;20204;-39
2021/01/09 00:57:48;;;;;;;14.70;10.77;;;8.20;56.00;;;;;;5050210;28;20285;-40
2021/01/09 01:00:14;;;;;;;10.97;9.60;;;8.20;56.00;;;;;;5052472;28;20196;-39
2021/01/09 01:02:40;;;;;;;13.47;10.80;;;8.20;55.90;;;;;;5051795;28;20242;-39
2021/01/09 01:05:06;;;;;;;13.80;10.80;;;8.20;55.80;;;;;;5052153;28;20986;-39
2021/01/09 01:07:34;;;;;;;16.30;11.13;;;8.10;55.90;;;;;;5051617;28;20184;-40
2021/01/09 01:10:02;;;;;;;14.67;11.93;;;8.10;56.10;;;;;;5051475;28;20466;-39
2021/01/09 01:12:27;;;;;;;13.50;11.47;;;8.10;56.70;;;;;;5050457;28;20478;-39
2021/01/09 01:14:53;;;;;;;15.60;12.00;;;8.10;56.40;;;;;;5051953;28;20888;-39
2021/01/09 01:17:18;;;;;;;15.13;11.50;;;8.10;56.80;;;;;;5051835;28;20551;-40
2021/01/09 01:19:44;;;;;;;13.40;11.13;;;8.10;56.90;;;;;;5051601;28;20645;-39
2021/01/09 01:22:09;;;;;;;13.70;11.00;;;8.10;57.00;;;;;;5051943;28;20196;-39
2021/01/09 01:24:35;;;;;;;17.20;12.33;;;8.10;57.40;;;;;;5051499;28;20200;-39
2021/01/09 01:27:01;;;;;;;14.20;11.20;;;8.00;56.80;;;;;;5049677;28;20203;-39
2021/01/09 01:29:26;;;;;;;17.57;12.30;;;8.00;56.90;;;;;;5051194;28;20215;-39
2021/01/09 01:31:52;;;;;;;15.20;12.13;;;8.00;56.90;;;;;;5051772;28;20185;-39
2021/01/09 01:34:17;;;;;;;17.87;12.23;;;8.00;57.00;;;;;;5051374;28;20636;-39
2021/01/09 01:36:49;;;;;;;14.80;11.23;;;8.10;57.20;;;;;;5051732;28;20192;-40
2021/01/09 01:39:15;;;;;;;16.57;11.67;;;8.00;57.10;;;;;;5051060;28;20250;-39
2021/01/09 01:41:40;;;;;;;14.70;10.90;;;8.00;57.10;;;;;;5050947;28;20961;-39
2021/01/09 01:44:06;;;;;;;18.90;11.83;;;8.10;57.20;;;;;;5052068;28;20273;-39
2021/01/09 01:46:32;;;;;;;15.33;10.40;;;8.10;57.30;;;;;;5052669;28;20185;-39
2021/01/09 01:48:57;;;;;;;14.63;11.17;;;8.10;57.20;;;;;;5050426;28;20192;-40
2021/01/09 01:51:23;;;;;;;14.73;11.50;;;8.10;57.20;;;;;;5049944;28;20192;-39
2021/01/09 01:53:49;;;;;;;14.93;11.70;;;8.10;57.10;;;;;;5049078;28;20192;-39
2021/01/09 01:56:15;;;;;;;16.17;12.10;;;8.10;57.00;;;;;;5051248;28;20226;-39
2021/01/09 01:58:41;;;;;;;16.40;12.00;;;8.10;57.00;;;;;;5050733;28;20966;-39
2021/01/09 02:01:09;;;;;;;16.20;12.10;;;8.00;57.00;;;;;;5051644;28;20196;-39
2021/01/09 02:03:35;;;;;;;17.37;13.30;;;8.00;57.00;;;;;;5050134;28;20185;-40
2021/01/09 02:06:07;;;;;;;15.67;11.90;;;8.10;57.00;;;;;;5051819;28;20460;-39
2021/01/09 02:08:38;;;;;;;18.20;11.90;;;8.10;56.90;;;;;;5049761;28;20439;-39
2021/01/09 02:11:08;;;;;;;19.43;13.37;;;8.10;56.80;;;;;;5049900;28;20777;-39
2021/01/09 02:13:51;;;;;;;17.10;12.40;;;8.00;56.80;;;;;;5049895;28;20450;-39
2021/01/09 02:16:17;;;;;;;15.73;12.77;;;8.10;56.90;;;;;;5050360;28;20431;-39
2021/01/09 02:18:44;;;;;;;16.77;12.10;;;8.10;56.70;;;;;;5050584;28;20984;-40
2021/01/09 02:21:20;;;;;;;18.50;12.50;;;8.10;56.50;;;;;;5048932;28;20882;-39
2021/01/09 02:23:46;;;;;;;19.23;13.50;;;8.10;56.30;;;;;;5049608;28;20492;-39
2021/01/09 02:26:11;;;;;;;17.53;12.00;;;8.20;56.20;;;;;;5051760;28;20420;-40
2021/01/09 02:28:37;;;;;;;19.67;13.77;;;8.20;56.10;;;;;;5049647;28;20189;-39
2021/01/09 02:31:04;;;;;;;17.23;13.43;;;8.10;56.00;;;;;;5050280;28;20185;-39
2021/01/09 02:33:31;;;;;;;15.57;12.80;;;8.20;56.10;;;;;;5050169;28;20217;-39
2021/01/09 02:35:58;;;;;;;15.83;12.80;;;8.10;56.10;;;;;;5051147;28;20440;-39
2021/01/09 02:38:23;;;;;;;19.37;13.57;;;8.10;56.40;;;;;;5049824;28;20486;-39
2021/01/09 02:40:49;;;;;;;20.90;14.80;;;8.10;56.40;;;;;;5050184;28;20879;-39
2021/01/09 02:43:15;;;;;;;17.27;12.90;;;8.10;56.30;;;;;;5048959;28;20188;-39
2021/01/09 02:45:41;;;;;;;15.50;12.17;;;8.10;56.20;;;;;;5062483;28;20196;-39
2021/01/09 02:48:07;;;;;;;15.53;12.03;;;8.20;56.40;;;;;;5050161;28;20609;-39
2021/01/09 02:50:33;;;;;;;17.67;12.67;;;8.20;56.50;;;;;;5047607;28;20479;-39
2021/01/09 02:52:58;;;;;;;16.20;12.70;;;8.20;56.30;;;;;;5049234;28;20457;-39
2021/01/09 02:55:24;;;;;;;16.73;12.30;;;8.20;56.30;;;;;;5049921;28;20453;-39
2021/01/09 02:57:49;;;;;;;15.93;12.17;;;8.20;56.40;;;;;;5050037;28;20224;-39
2021/01/09 03:00:15;;;;;;;17.83;13.30;;;8.20;56.40;;;;;;5049771;28;20192;-39
2021/01/09 03:02:41;;;;;;;16.30;12.50;;;8.20;56.40;;;;;;5048066;28;20196;-39
2021/01/09 03:05:07;;;;;;;17.67;13.20;;;8.20;56.30;;;;;;5050134;28;20439;-39
2021/01/09 03:07:33;;;;;;;19.50;14.37;;;8.20;56.40;;;;;;5049121;28;20930;-39
2021/01/09 03:09:59;;;;;;;18.20;13.70;;;8.20;56.50;;;;;;5048789;28;20419;-39
2021/01/09 03:12:24;;;;;;;18.60;13.50;;;8.20;56.40;;;;;;5051857;28;20189;-39
2021/01/09 03:14:51;;;;;;;21.13;13.17;;;8.20;56.30;;;;;;5049645;28;20224;-39
2021/01/09 03:17:17;;;;;;;17.63;13.07;;;8.20;56.40;;;;;;5048244;28;20189;-39
2021/01/09 03:19:42;;;;;;;18.70;13.03;;;8.20;56.40;;;;;;5048739;28;20607;-39
2021/01/09 03:22:08;;;;;;;20.77;13.43;;;8.10;56.10;;;;;;5048876;28;20192;-39
2021/01/09 03:24:33;;;;;;;18.60;13.87;;;8.10;56.30;;;;;;5049272;28;20185;-40
2021/01/09 03:26:59;;;;;;;18.33;12.80;;;8.10;56.30;;;;;;5049836;28;21023;-39
2021/01/09 03:29:24;;;;;;;22.23;13.13;;;8.20;56.20;;;;;;5049474;28;20254;-39
2021/01/09 03:31:50;;;;;;;18.80;13.73;;;8.20;56.30;;;;;;5049374;28;20267;-39
2021/01/09 03:34:15;;;;;;;19.37;13.30;;;8.20;56.30;;;;;;5049806;28;20199;-39
2021/01/09 03:36:41;;;;;;;16.40;12.43;;;8.20;56.50;;;;;;5049747;28;20291;-39
2021/01/09 03:39:06;;;;;;;19.57;14.07;;;8.10;56.80;;;;;;5049676;28;20247;-39
2021/01/09 03:41:32;;;;;;;19.17;13.60;;;8.10;56.60;;;;;;5049234;28;20228;-40
2021/01/09 03:43:58;;;;;;;18.80;13.90;;;8.10;56.40;;;;;;5049055;28;20189;-39
2021/01/09 03:46:23;;;;;;;20.63;13.80;;;8.10;56.40;;;;;;5051892;28;20279;-40
2021/01/09 03:48:49;;;;;;;22.47;13.67;;;8.10;56.70;;;;;;5048350;28;20199;-40
2021/01/09 03:51:14;;;;;;;18.40;13.97;;;8.10;56.50;;;;;;5048960;28;20192;-39
2021/01/09 03:53:40;;;;;;;17.73;13.43;;;8.20;56.50;;;;;;5048244;28;20283;-39
2021/01/09 03:56:05;;;;;;;19.70;12.40;;;8.10;56.30;;;;;;5049807;28;20193;-39
2021/01/09 03:58:31;;;;;;;22.30;14.27;;;8.10;56.20;;;;;;5049397;28;20224;-39
2021/01/09 04:00:56;;;;;;;18.90;12.80;;;8.10;56.60;;;;;;5048695;28;20189;-39
2021/01/09 04:03:22;;;;;;;17.00;13.60;;;8.10;56.80;;;;;;5049272;28;20241;-39
2021/01/09 04:05:47;;;;;;;20.73;13.63;;;8.10;56.70;;;;;;5049312;28;20193;-39
2021/01/09 04:08:13;;;;;;;18.00;13.87;;;8.10;56.60;;;;;;5048822;28;20640;-39
2021/01/09 04:10:39;;;;;;;19.73;14.10;;;8.10;56.80;;;;;;5048931;28;20617;-40
2021/01/09 04:13:04;;;;;;;21.00;15.30;;;8.10;56.80;;;;;;5048297;28;20589;-39
2021/01/09 04:15:30;;;;;;;19.53;14.17;;;8.10;56.60;;;;;;5052265;28;20271;-40
2021/01/09 04:17:55;;;;;;;18.60;13.00;;;8.20;56.70;;;;;;5052205;28;20211;-39
2021/01/09 04:20:21;;;;;;;18.90;14.60;;;8.10;56.70;;;;;;5053241;28;20272;-39
2021/01/09 04:22:46;;;;;;;18.57;14.60;;;8.10;56.70;;;;;;5052430;28;20217;-39
2021/01/09 04:25:12;;;;;;;20.57;15.30;;;8.10;56.90;;;;;;5052855;28;20268;-39
2021/01/09 04:27:38;;;;;;;18.33;13.27;;;8.10;56.90;;;;;;5050783;28;20693;-39
2021/01/09 04:30:04;;;;;;;20.90;14.70;;;8.10;56.90;;;;;;5052937;28;20431;-40
2021/01/09 04:32:30;;;;;;;22.93;13.97;;;8.10;56.80;;;;;;5052505;28;20216;-39
2021/01/09 04:34:59;;;;;;;19.87;14.70;;;8.10;56.60;;;;;;5052617;28;20459;-39
2021/01/09 04:37:25;;;;;;;20.93;14.97;;;8.10;56.70;;;;;;5052469;28;20240;-39
2021/01/09 04:39:50;;;;;;;20.93;14.40;;;8.10;56.80;;;;;;5051151;28;21028;-39
2021/01/09 04:42:16;;;;;;;19.60;14.27;;;8.10;56.70;;;;;;5050849;28;20513;-39
2021/01/09 04:44:42;;;;;;;18.80;12.80;;;8.10;56.90;;;;;;5052482;28;20215;-39
2021/01/09 04:47:08;;;;;;;19.30;13.57;;;8.10;57.00;;;;;;5059394;28;20558;-39
2021/01/09 04:49:34;;;;;;;21.57;15.27;;;8.10;57.00;;;;;;5052557;28;20188;-39
2021/01/09 04:52:02;;;;;;;18.70;13.77;;;8.10;57.50;;;;;;5052579;28;20443;-39
2021/01/09 04:54:29;;;;;;;18.30;13.90;;;8.10;57.10;;;;;;5052608;28;20208;-39
2021/01/09 04:56:56;;;;;;;22.33;14.53;;;8.00;57.20;;;;;;5052401;28;20489;-39
2021/01/09 04:59:23;;;;;;;20.63;13.93;;;8.10;57.20;;;;;;5052342;28;20552;-39
2021/01/09 05:01:50;;;;;;;17.50;13.33;;;8.10;57.10;;;;;;5052415;28;20917;-39
2021/01/09 05:04:17;;;;;;;18.07;12.83;;;8.10;57.10;;;;;;5052547;28;20427;-39
2021/01/09 05:06:44;;;;;;;19.47;14.20;;;8.10;57.20;;;;;;5052205;28;20427;-39
2021/01/09 05:09:11;;;;;;;18.17;14.37;;;8.10;57.30;;;;;;5049819;28;20793;-40
2021/01/09 05:11:39;;;;;;;23.60;13.33;;;8.10;57.30;;;;;;5052392;28;20431;-39
2021/01/09 05:14:05;;;;;;;18.60;13.43;;;8.10;57.30;;;;;;5051305;28;20442;-39
2021/01/09 05:16:31;;;;;;;19.83;14.67;;;8.00;57.40;;;;;;5051788;28;20835;-39
2021/01/09 05:18:57;;;;;;;21.00;14.27;;;8.00;57.50;;;;;;5051887;28;20954;-39
2021/01/09 05:21:24;;;;;;;19.67;14.57;;;8.10;57.50;;;;;;5051042;28;20442;-39
2021/01/09 05:24:03;;;;;;;18.90;13.47;;;8.10;57.50;;;;;;5051688;28;20423;-39
2021/01/09 05:26:29;;;;;;;21.80;14.00;;;8.00;57.40;;;;;;5052329;28;20434;-39
2021/01/09 05:28:57;;;;;;;21.30;15.60;;;8.10;57.50;;;;;;5050732;28;20423;-39
2021/01/09 05:31:24;;;;;;;17.83;13.37;;;8.00;57.60;;;;;;5052202;28;20419;-39
2021/01/09 05:33:51;;;;;;;17.93;14.43;;;8.00;57.70;;;;;;5051061;28;20439;-39
2021/01/09 05:36:18;;;;;;;19.50;14.70;;;8.00;58.20;;;;;;5050123;28;20439;-39
2021/01/09 05:38:45;;;;;;;20.83;14.70;;;8.00;57.60;;;;;;5044892;28;20887;-39
2021/01/09 05:41:16;;;;;;;18.00;14.20;;;8.00;57.50;;;;;;5049420;28;20462;-39
2021/01/09 05:44:01;;;;;;;20.10;14.17;;;8.00;57.70;;;;;;5051044;28;20459;-39
2021/01/09 05:46:31;;;;;;;19.33;13.63;;;8.00;57.70;;;;;;5049918;28;20439;-39
2021/01/09 05:48:58;;;;;;;20.97;14.10;;;8.00;57.60;;;;;;5051443;28;20450;-39
2021/01/09 05:51:25;;;;;;;24.20;15.30;;;8.00;57.60;;;;;;5051419;28;20513;-39
2021/01/09 05:53:51;;;;;;;21.10;13.63;;;8.00;57.60;;;;;;5051161;28;21004;-39
2021/01/09 05:56:18;;;;;;;20.77;14.90;;;8.00;57.70;;;;;;5051788;28;20470;-39
2021/01/09 05:58:44;;;;;;;20.50;14.67;;;8.00;57.80;;;;;;5051200;28;20672;-40
2021/01/09 06:01:13;;;;;;;22.33;14.77;;;8.00;57.80;;;;;;5050508;28;20431;-39
2021/01/09 06:03:42;;;;;;;19.83;14.30;;;8.00;57.60;;;;;;5048789;28;20439;-39
2021/01/09 06:06:16;;;;;;;18.50;13.90;;;8.00;57.50;;;;;;5051830;28;20431;-40
2021/01/09 06:08:52;;;;;;;23.23;15.07;;;8.00;57.60;;;;;;5048192;28;20460;-39
2021/01/09 06:11:26;;;;;;;25.43;16.17;;;8.00;57.80;;;;;;5050693;28;20480;-39
2021/01/09 06:13:52;;;;;;;20.97;14.53;;;8.00;57.70;;;;;;5050641;28;20423;-39
2021/01/09 06:16:18;;;;;;;19.70;15.50;;;8.00;57.70;;;;;;5050867;28;20423;-39
2021/01/09 06:18:45;;;;;;;26.10;16.17;;;8.00;57.60;;;;;;5050596;28;20498;-40
2021/01/09 06:21:11;;;;;;;20.77;14.53;;;8.00;57.70;;;;;;5050823;28;20434;-39
2021/01/09 06:23:37;;;;;;;20.30;14.00;;;8.00;57.80;;;;;;5050424;28;20463;-40
2021/01/09 06:26:05;;;;;;;28.83;18.97;;;7.90;57.90;;;;;;5047745;28;20529;-40
2021/01/09 06:28:42;;;;;;;36.73;23.03;;;8.20;59.60;;;;;;5050624;28;20189;-40
2021/01/09 06:31:18;;;;;;;29.53;19.10;;;8.60;59.80;;;;;;5049904;28;20438;-40
2021/01/09 06:33:50;;;;;;;21.23;15.60;;;9.00;58.10;;;;;;5049517;28;20962;-39
2021/01/09 06:36:17;;;;;;;24.17;15.93;;;9.30;57.70;;;;;;5049264;28;20517;-39
2021/01/09 06:38:48;;;;;;;20.50;14.43;;;9.60;57.20;;;;;;5049161;28;20505;-40
2021/01/09 06:41:16;;;;;;;18.60;15.17;;;9.70;56.40;;;;;;5048147;28;20467;-40
2021/01/09 06:44:05;;;;;;;18.60;14.13;;;9.90;55.80;;;;;;5050522;28;20435;-40
2021/01/09 06:46:35;;;;;;;21.70;15.27;;;10.10;53.90;;;;;;5049739;28;20817;-40
2021/01/09 06:49:02;;;;;;;19.57;14.60;;;10.20;53.20;;;;;;5049711;28;20443;-40
2021/01/09 06:51:51;;;;;;;18.87;14.80;;;10.30;52.90;;;;;;5050614;28;20431;-40
2021/01/09 06:54:47;;;;;;;19.80;14.80;;;10.40;52.50;;;;;;5040524;28;20443;-40
2021/01/09 06:57:20;;;;;;;19.67;14.80;;;10.50;52.20;;;;;;5048568;28;20553;-40
2021/01/09 06:59:47;;;;;;;22.10;15.23;;;10.60;51.90;;;;;;5048105;28;20486;-40
2021/01/09 07:02:20;;;;;;;20.40;14.97;;;10.60;51.60;;;;;;5048555;28;20534;-40
2021/01/09 07:05:09;;;;;;;19.90;14.53;;;10.60;51.00;;;;;;5049583;28;20773;-40
2021/01/09 07:07:54;;;;;;;19.47;15.33;;;10.70;51.20;;;;;;5047100;28;20477;-40
2021/01/09 07:10:24;;;;;;;19.63;15.27;;;10.70;51.30;;;;;;5048913;28;20461;-40
2021/01/09 07:12:56;;;;;;;20.43;14.83;;;10.80;51.30;;;;;;5048646;28;20439;-40
2021/01/09 07:15:23;;;;;;;19.00;14.87;;;10.80;51.00;;;;;;5048857;28;20435;-40
2021/01/09 07:17:58;;;;;;;24.63;15.97;;;10.80;50.90;;;;;;5049364;28;20459;-40
2021/01/09 07:20:29;;;;;;;19.20;15.20;;;10.80;50.80;;;;;;5048526;28;20512;-40
2021/01/09 07:23:00;;;;;;;21.80;15.60;;;10.90;50.70;;;;;;5049320;28;20423;-40
2021/01/09 07:25:40;;;;;;;20.50;16.10;;;10.80;50.60;;;;;;5050212;28;20427;-40
2021/01/09 07:28:14;;;;;;;18.33;13.60;;;10.80;50.40;;;;;;5046772;28;20439;-40
2021/01/09 07:30:41;;;;;;;19.23;13.97;;;10.80;50.70;;;;;;5047358;28;20427;-40
2021/01/09 07:33:09;;;;;;;19.00;14.63;;;10.80;50.40;;;;;;5049279;28;20435;-40
2021/01/09 07:35:37;;;;;;;23.70;14.70;;;10.80;50.20;;;;;;5050044;28;20431;-40
2021/01/09 07:38:05;;;;;;;20.37;15.63;;;10.80;50.30;;;;;;5048782;28;20485;-40
2021/01/09 07:40:50;;;;;;;22.23;16.47;;;10.90;50.50;;;;;;5048074;28;20461;-40
2021/01/09 07:43:46;;;;;;;44.90;27.10;;;10.90;50.40;;;;;;5045185;28;20427;-40
2021/01/09 07:46:29;;;;;;;30.40;22.50;;;10.90;50.00;;;;;;5048573;28;20819;-40
2021/01/09 07:48:57;;;;;;;23.80;16.33;;;10.80;50.10;;;;;;5059501;28;20461;-39
2021/01/09 07:51:50;;;;;;;18.90;15.07;;;10.80;50.20;;;;;;5053049;28;20788;-40
2021/01/09 07:54:28;;;;;;;24.23;15.33;;;10.60;50.20;;;;;;5051174;28;20555;-41
2021/01/09 07:56:53;;;;;;;25.63;17.03;;;10.30;50.80;;;;;;5051206;28;20496;-41
2021/01/09 07:59:19;;;;;;;23.00;16.23;;;10.10;51.50;;;;;;5051173;28;20954;-41
2021/01/09 08:01:45;;;;;;;38.53;25.00;;;9.80;53.00;;;;;;5052607;28;20748;-39
2021/01/09 08:04:12;;;;;;;36.73;26.00;;;9.60;53.50;;;;;;5053458;28;20234;-39
2021/01/09 08:06:38;;;;;;;25.93;18.93;;;9.40;54.10;;;;;;5051451;28;20526;-39
2021/01/09 08:09:05;;;;;;;27.17;18.03;;;9.30;54.50;;;;;;5049811;28;20805;-38
2021/01/09 08:11:31;;;;;;;19.07;15.53;;;9.20;54.70;;;;;;5049687;28;20522;-40
2021/01/09 08:14:03;;;;;;;26.50;17.27;;;9.10;54.90;;;;;;5052609;28;20530;-41
2021/01/09 08:16:29;;;;;;;22.13;16.50;;;9.00;55.00;;;;;;5048277;28;20508;-39
2021/01/09 08:19:10;;;;;;;24.53;15.93;;;9.00;55.30;;;;;;5052831;28;20501;-40
2021/01/09 08:21:36;;;;;;;24.60;16.43;;;8.90;55.40;;;;;;5053052;28;20231;-40
2021/01/09 08:24:02;;;;;;;22.43;16.27;;;8.90;55.70;;;;;;5049553;28;20462;-40
2021/01/09 08:26:31;;;;;;;24.40;16.77;;;8.80;56.00;;;;;;5053347;28;20870;-40
2021/01/09 08:28:58;;;;;;;26.53;17.37;;;8.70;56.30;;;;;;5050569;28;20191;-40
2021/01/09 08:31:25;;;;;;;27.60;16.30;;;8.70;56.40;;;;;;5055011;28;20441;-40
2021/01/09 08:33:51;;;;;;;23.50;17.63;;;8.70;56.50;;;;;;5052945;28;20445;-41
2021/01/09 08:36:17;;;;;;;27.83;17.13;;;8.70;56.60;;;;;;5052992;28;20527;-40
2021/01/09 08:38:43;;;;;;;24.83;17.23;;;8.70;56.70;;;;;;5051454;28;20224;-41
2021/01/09 08:41:09;;;;;;;33.60;20.87;;;8.70;56.70;;;;;;5051942;28;20487;-40
2021/01/09 08:43:34;;;;;;;26.23;18.00;;;8.60;56.70;;;;;;5052335;28;20787;-40
2021/01/09 08:46:00;;;;;;;26.30;17.03;;;8.60;56.90;;;;;;5052072;28;20196;-41
2021/01/09 08:48:34;;;;;;;27.83;17.50;;;8.60;56.90;;;;;;5050487;28;20238;-40
2021/01/09 08:51:16;;;;;;;37.03;19.40;;;8.60;57.10;;;;;;5049149;28;20196;-40
2021/01/09 08:53:48;;;;;;;27.03;18.90;;;8.60;57.20;;;;;;5050408;28;20810;-41
2021/01/09 08:56:14;;;;;;;29.00;19.47;;;8.60;57.10;;;;;;5058078;28;20423;-40
2021/01/09 08:58:40;;;;;;;33.87;21.80;;;8.60;57.00;;;;;;5051354;28;20897;-40
2021/01/09 09:01:10;;;;;;;39.60;24.47;;;8.60;57.00;;;;;;5053065;28;20443;-39
2021/01/09 09:03:43;;;;;;;40.37;23.63;;;8.60;56.90;;;;;;5052371;28;20921;-40
2021/01/09 09:06:12;;;;;;;37.43;23.07;;;8.60;56.80;;;;;;5053244;28;20425;-38
2021/01/09 09:08:39;;;;;;;32.97;22.93;;;8.70;56.80;;;;;;5052315;28;20428;-38
2021/01/09 09:11:05;;;;;;;48.37;29.03;;;8.70;56.80;;;;;;5052673;28;20427;-40
2021/01/09 09:13:32;;;;;;;49.87;31.13;;;8.60;56.70;;;;;;5052257;28;20785;-42
2021/01/09 09:15:58;;;;;;;47.07;29.67;;;8.60;56.50;;;;;;5052726;28;20192;-40
2021/01/09 09:18:33;;;;;;;41.33;26.70;;;8.50;56.00;;;;;;5050892;28;20524;-40
2021/01/09 09:20:58;;;;;;;32.30;23.30;;;8.50;55.90;;;;;;5052317;28;20894;-39
2021/01/09 09:23:25;;;;;;;41.67;27.00;;;8.50;56.00;;;;;;5052413;28;20419;-40
2021/01/09 09:26:13;;;;;;;37.13;24.97;;;8.50;56.10;;;;;;5052979;28;20245;-39
2021/01/09 09:28:53;;;;;;;36.97;24.67;;;8.50;55.80;;;;;;5052201;28;20427;-40
2021/01/09 09:31:27;;;;;;;34.97;21.50;;;8.50;55.70;;;;;;5052094;28;20439;-40
2021/01/09 09:34:06;;;;;;;36.30;22.83;;;8.40;55.40;;;;;;5052025;28;20435;-38
2021/01/09 09:36:35;;;;;;;37.00;24.07;;;8.50;55.70;;;;;;5052221;28;20438;-40
2021/01/09 09:39:14;;;;;;;42.30;26.77;;;8.50;55.50;;;;;;5051618;28;21160;-40
2021/01/09 09:41:52;;;;;;;33.60;23.03;;;8.60;56.30;;;;;;5052386;28;20813;-40
2021/01/09 09:44:19;;;;;;;32.37;19.53;;;8.70;55.30;;;;;;5051963;28;20435;-38
2021/01/09 09:46:45;;;;;;;30.40;20.70;;;8.90;55.80;;;;;;5050661;28;20427;-38
2021/01/09 09:49:11;;;;;;;32.33;21.17;;;9.10;55.70;;;;;;5051274;28;20438;-39
2021/01/09 09:51:37;;;;;;;31.27;20.70;;;9.40;55.30;;;;;;5052065;28;20644;-39
2021/01/09 09:54:03;;;;;;;34.50;19.90;;;9.60;54.80;;;;;;5051837;28;20462;-39
2021/01/09 09:56:42;;;;;;;26.20;18.40;;;10.00;53.20;;;;;;5051592;28;20280;-39
2021/01/09 09:59:10;;;;;;;30.37;20.83;;;10.30;52.60;;;;;;5070024;28;20478;-38
2021/01/09 10:01:36;;;;;;;27.83;20.37;;;10.60;52.60;;;;;;5053673;28;20427;-39
2021/01/09 10:04:08;;;;;;;27.30;19.83;;;10.80;51.90;;;;;;5051473;28;20420;-39
2021/01/09 10:06:41;;;;;;;27.90;18.43;;;11.00;50.90;;;;;;5051563;28;20902;-39
2021/01/09 10:09:17;;;;;;;30.93;20.50;;;11.20;50.10;;;;;;5051018;28;20778;-39
2021/01/09 10:11:43;;;;;;;27.60;20.30;;;11.20;49.60;;;;;;5049398;28;20968;-39
2021/01/09 10:14:08;;;;;;;23.10;18.17;;;11.20;49.30;;;;;;5051263;28;20419;-39
2021/01/09 10:16:35;;;;;;;26.70;18.47;;;11.00;49.80;;;;;;5051315;28;20196;-38
2021/01/09 10:19:01;;;;;;;23.73;17.27;;;10.90;50.10;;;;;;5050882;28;20885;-39
2021/01/09 10:21:28;;;;;;;23.10;16.83;;;10.90;50.50;;;;;;5051566;28;20442;-39
2021/01/09 10:23:56;;;;;;;23.33;17.70;;;11.00;51.10;;;;;;5050979;28;20667;-39
2021/01/09 10:26:32;;;;;;;22.27;17.40;;;11.00;50.50;;;;;;5051462;28;20439;-39
2021/01/09 10:29:02;;;;;;;24.73;16.87;;;11.00;52.40;;;;;;5050891;28;20461;-39
2021/01/09 10:31:38;;;;;;;24.80;17.77;;;11.20;51.20;;;;;;5051340;28;20504;-39
2021/01/09 10:34:06;;;;;;;20.17;14.03;;;11.30;50.40;;;;;;5049298;28;20440;-40
2021/01/09 10:36:36;;;;;;;15.70;12.93;;;11.20;50.20;;;;;;5048908;28;20496;-40
2021/01/09 10:39:04;;;;;;;16.90;13.90;;;11.10;48.90;;;;;;5047165;28;20483;-40
2021/01/09 10:41:30;;;;;;;16.37;12.77;;;11.00;48.50;;;;;;5052372;28;20528;-40
2021/01/09 10:43:55;;;;;;;13.40;10.40;;;10.70;47.60;;;;;;5048912;28;20419;-40
2021/01/09 10:46:30;;;;;;;25.93;19.67;;;10.60;48.30;;;;;;5050171;28;20276;-40
2021/01/09 10:48:56;;;;;;;24.90;17.30;;;10.20;47.90;;;;;;5047727;28;20195;-40
2021/01/09 10:51:23;;;;;;;17.63;11.73;;;10.20;48.40;;;;;;5050522;28;20427;-40
2021/01/09 10:53:49;;;;;;;11.73;10.00;;;10.30;47.90;;;;;;5049431;28;20923;-40
2021/01/09 10:56:15;;;;;;;13.07;10.07;;;10.40;47.50;;;;;;5048795;28;20439;-40
2021/01/09 10:58:41;;;;;;;11.83;9.20;;;10.30;47.40;;;;;;5046383;28;20824;-40
2021/01/09 11:01:08;;;;;;;11.63;9.23;;;10.50;47.40;;;;;;5050375;28;20431;-40
2021/01/09 11:03:35;;;;;;;12.43;9.60;;;10.50;46.80;;;;;;5050239;28;20987;-40
2021/01/09 11:06:01;;;;;;;15.73;9.57;;;10.60;47.20;;;;;;5049340;28;20431;-40
2021/01/09 11:08:27;;;;;;;11.07;9.43;;;10.60;47.20;;;;;;5047775;28;20427;-40
2021/01/09 11:10:54;;;;;;;9.73;8.33;;;10.50;47.40;;;;;;5049708;28;20781;-40
2021/01/09 11:13:19;;;;;;;14.50;10.33;;;10.50;47.20;;;;;;5049849;28;20783;-40
2021/01/09 11:15:47;;;;;;;10.50;8.87;;;10.70;46.10;;;;;;5050484;28;20525;-40
2021/01/09 11:18:13;;;;;;;9.93;8.30;;;10.50;45.60;;;;;;5049785;28;20228;-40
2021/01/09 11:20:39;;;;;;;12.30;10.40;;;10.20;45.50;;;;;;5049628;28;20841;-40
2021/01/09 11:23:05;;;;;;;11.60;8.20;;;10.10;46.40;;;;;;5054135;28;20199;-40
2021/01/09 11:25:31;;;;;;;10.00;7.70;;;9.90;46.90;;;;;;5056909;28;20418;-40
2021/01/09 11:27:58;;;;;;;10.20;7.40;;;9.80;47.70;;;;;;5055133;28;20442;-39
2021/01/09 11:30:24;;;;;;;11.77;8.30;;;9.60;47.20;;;;;;5056767;28;20493;-40
2021/01/09 11:32:49;;;;;;;10.10;8.20;;;9.50;46.90;;;;;;5056158;28;20557;-40
2021/01/09 11:35:15;;;;;;;9.87;7.90;;;9.40;47.90;;;;;;5054937;28;20858;-39
2021/01/09 11:37:41;;;;;;;11.00;7.17;;;9.40;48.90;;;;;;5055877;28;20192;-40
2021/01/09 11:40:07;;;;;;;10.50;8.57;;;9.50;49.30;;;;;;5056158;28;20676;-39
2021/01/09 11:42:32;;;;;;;10.97;7.63;;;9.40;48.80;;;;;;5056183;28;20203;-39
2021/01/09 11:44:58;;;;;;;8.40;6.80;;;9.30;48.10;;;;;;5056185;28;20490;-40
2021/01/09 11:47:23;;;;;;;10.33;8.10;;;9.10;47.80;;;;;;5055961;28;20586;-39
2021/01/09 11:49:49;;;;;;;8.47;7.00;;;9.20;48.30;;;;;;5056217;28;20220;-40
2021/01/09 11:52:15;;;;;;;8.77;7.00;;;9.30;48.30;;;;;;5055950;28;20520;-40
2021/01/09 11:54:40;;;;;;;8.63;7.10;;;9.40;48.40;;;;;;5056312;28;20539;-40
2021/01/09 11:57:06;;;;;;;8.97;6.77;;;9.50;47.60;;;;;;5056127;28;20743;-40
2021/01/09 11:59:32;;;;;;;8.03;6.17;;;9.50;47.30;;;;;;5055792;28;20577;-39
2021/01/09 12:01:57;;;;;;;8.13;6.50;;;9.60;47.20;;;;;;5047437;28;20196;-40
2021/01/09 12:04:23;;;;;;;7.03;5.93;;;9.50;46.60;;;;;;5055483;28;20238;-40
2021/01/09 12:06:49;;;;;;;8.27;6.80;;;9.50;46.30;;;;;;5056919;28;20419;-40
2021/01/09 12:09:15;;;;;;;8.83;6.80;;;9.50;46.10;;;;;;5055808;28;20275;-39
2021/01/09 12:11:41;;;;;;;9.60;7.50;;;9.50;45.70;;;;;;5056241;28;20188;-39
2021/01/09 12:14:06;;;;;;;8.77;6.93;;;9.50;46.00;;;;;;5055844;28;20485;-40
2021/01/09 12:16:34;;;;;;;7.17;5.77;;;9.30;46.30;;;;;;5056895;28;20188;-39
2021/01/09 12:19:00;;;;;;;7.50;6.43;;;9.00;46.30;;;;;;5055246;28;20314;-40
2021/01/09 12:21:29;;;;;;;11.43;7.00;;;9.00;46.10;;;;;;5056427;28;20427;-39
2021/01/09 12:23:56;;;;;;;8.83;7.50;;;9.10;46.10;;;;;;5055820;28;20433;-40
2021/01/09 12:26:22;;;;;;;10.27;8.07;;;9.10;46.50;;;;;;5055887;28;20458;-39
2021/01/09 12:28:48;;;;;;;9.40;7.90;;;8.90;47.00;;;;;;5055078;28;20473;-39
2021/01/09 12:31:13;;;;;;;9.13;7.30;;;9.00;47.50;;;;;;5054854;28;20662;-39
2021/01/09 12:33:40;;;;;;;8.53;6.60;;;9.10;47.70;;;;;;5053411;28;20430;-39
2021/01/09 12:36:08;;;;;;;7.40;6.40;;;8.90;46.90;;;;;;5052385;28;20315;-40
2021/01/09 12:38:34;;;;;;;8.37;6.50;;;8.70;46.80;;;;;;5051974;28;20532;-40
2021/01/09 12:40:59;;;;;;;8.87;6.60;;;8.80;47.20;;;;;;5053120;28;22050;-40
2021/01/09 12:43:25;;;;;;;9.00;7.30;;;8.60;46.80;;;;;;5048552;28;20488;-39